sensor_id;sensor_type;location;lat;lon;timestamp;pressure;altitude;pressure_sealevel;temperature
79632;BMP280;69108;41.120;16.874;2023-11-21T00:00:23;101249.88;;;17.56
79632;BMP280;69108;41.120;16.874;2023-11-21T00:02:51;101245.03;;;17.51
79632;BMP280;69108;41.120;16.874;2023-11-21T00:05:18;101237.00;;;17.47
79632;BMP280;69108;41.120;16.874;2023-11-21T00:07:45;101244.88;;;17.45
79632;BMP280;69108;41.120;16.874;2023-11-21T00:10:13;101238.38;;;17.43
79632;BMP280;69108;41.120;16.874;2023-11-21T00:12:46;101239.56;;;17.42
79632;BMP280;69108;41.120;16.874;2023-11-21T00:15:14;101242.72;;;17.40
79632;BMP280;69108;41.120;16.874;2023-11-21T00:17:43;101237.44;;;17.37
79632;BMP280;69108;41.120;16.874;2023-11-21T00:20:13;101234.41;;;17.35
79632;BMP280;69108;41.120;16.874;2023-11-21T00:22:40;101227.88;;;17.32
79632;BMP280;69108;41.120;16.874;2023-11-21T00:25:09;101238.47;;;17.30
79632;BMP280;69108;41.120;16.874;2023-11-21T00:27:37;101235.47;;;17.28
79632;BMP280;69108;41.120;16.874;2023-11-21T00:30:05;101225.47;;;17.25
79632;BMP280;69108;41.120;16.874;2023-11-21T00:32:35;101225.88;;;17.23
79632;BMP280;69108;41.120;16.874;2023-11-21T00:35:06;101224.81;;;17.21
79632;BMP280;69108;41.120;16.874;2023-11-21T00:37:37;101218.31;;;17.18
79632;BMP280;69108;41.120;16.874;2023-11-21T00:40:06;101216.47;;;17.15
79632;BMP280;69108;41.120;16.874;2023-11-21T00:42:36;101217.69;;;17.14
79632;BMP280;69108;41.120;16.874;2023-11-21T00:45:06;101212.22;;;17.14
79632;BMP280;69108;41.120;16.874;2023-11-21T00:47:34;101205.41;;;17.10
79632;BMP280;69108;41.120;16.874;2023-11-21T00:50:03;101203.13;;;17.08
79632;BMP280;69108;41.120;16.874;2023-11-21T00:52:37;101200.41;;;17.08
79632;BMP280;69108;41.120;16.874;2023-11-21T00:55:05;101204.03;;;17.05
79632;BMP280;69108;41.120;16.874;2023-11-21T00:57:33;101201.75;;;17.04
79632;BMP280;69108;41.120;16.874;2023-11-21T01:00:00;101194.44;;;17.01
79632;BMP280;69108;41.120;16.874;2023-11-21T01:02:30;101192.47;;;17.01
79632;BMP280;69108;41.120;16.874;2023-11-21T01:04:57;101191.44;;;16.99
79632;BMP280;69108;41.120;16.874;2023-11-21T01:07:27;101191.13;;;16.97
79632;BMP280;69108;41.120;16.874;2023-11-21T01:09:56;101185.34;;;16.95
79632;BMP280;69108;41.120;16.874;2023-11-21T01:12:22;101185.81;;;16.93
79632;BMP280;69108;41.120;16.874;2023-11-21T01:14:50;101181.28;;;16.90
79632;BMP280;69108;41.120;16.874;2023-11-21T01:17:23;101187.00;;;16.92
79632;BMP280;69108;41.120;16.874;2023-11-21T01:19:51;101180.06;;;16.91
79632;BMP280;69108;41.120;16.874;2023-11-21T01:22:19;101173.81;;;16.91
79632;BMP280;69108;41.120;16.874;2023-11-21T01:24:51;101164.13;;;16.90
79632;BMP280;69108;41.120;16.874;2023-11-21T01:27:23;101165.34;;;16.89
79632;BMP280;69108;41.120;16.874;2023-11-21T01:29:51;101173.50;;;16.89
79632;BMP280;69108;41.120;16.874;2023-11-21T01:32:19;101157.88;;;16.80
79632;BMP280;69108;41.120;16.874;2023-11-21T01:34:47;101163.50;;;16.86
79632;BMP280;69108;41.120;16.874;2023-11-21T01:37:17;101155.03;;;16.84
79632;BMP280;69108;41.120;16.874;2023-11-21T01:39:45;101153.81;;;16.85
79632;BMP280;69108;41.120;16.874;2023-11-21T01:42:13;101155.31;;;16.86
79632;BMP280;69108;41.120;16.874;2023-11-21T01:44:42;101149.41;;;16.87
79632;BMP280;69108;41.120;16.874;2023-11-21T01:47:10;101144.41;;;16.86
79632;BMP280;69108;41.120;16.874;2023-11-21T01:49:37;101147.88;;;16.86
79632;BMP280;69108;41.120;16.874;2023-11-21T01:52:09;101143.69;;;16.85
79632;BMP280;69108;41.120;16.874;2023-11-21T01:54:39;101141.84;;;16.82
79632;BMP280;69108;41.120;16.874;2023-11-21T01:57:08;101145.50;;;16.88
79632;BMP280;69108;41.120;16.874;2023-11-21T01:59:36;101139.13;;;16.91
79632;BMP280;69108;41.120;16.874;2023-11-21T02:02:09;101136.69;;;16.93
79632;BMP280;69108;41.120;16.874;2023-11-21T02:04:36;101139.72;;;16.95
79632;BMP280;69108;41.120;16.874;2023-11-21T02:07:09;101131.53;;;16.95
79632;BMP280;69108;41.120;16.874;2023-11-21T02:09:41;101127.16;;;16.98
79632;BMP280;69108;41.120;16.874;2023-11-21T02:12:11;101120.78;;;17.01
79632;BMP280;69108;41.120;16.874;2023-11-21T02:14:40;101120.34;;;17.02
79632;BMP280;69108;41.120;16.874;2023-11-21T02:17:09;101112.91;;;17.03
79632;BMP280;69108;41.120;16.874;2023-11-21T02:19:36;101105.78;;;16.96
79632;BMP280;69108;41.120;16.874;2023-11-21T02:22:05;101114.88;;;17.02
79632;BMP280;69108;41.120;16.874;2023-11-21T02:24:36;101119.88;;;17.04
79632;BMP280;69108;41.120;16.874;2023-11-21T02:27:03;101104.88;;;16.99
79632;BMP280;69108;41.120;16.874;2023-11-21T02:29:31;101099.84;;;16.98
79632;BMP280;69108;41.120;16.874;2023-11-21T02:32:02;101107.13;;;17.01
79632;BMP280;69108;41.120;16.874;2023-11-21T02:34:30;101095.63;;;16.97
79632;BMP280;69108;41.120;16.874;2023-11-21T02:36:57;101095.63;;;16.97
79632;BMP280;69108;41.120;16.874;2023-11-21T02:39:24;101103.66;;;17.00
79632;BMP280;69108;41.120;16.874;2023-11-21T02:41:52;101096.69;;;16.99
79632;BMP280;69108;41.120;16.874;2023-11-21T02:44:21;101094.75;;;17.00
79632;BMP280;69108;41.120;16.874;2023-11-21T02:46:47;101086.22;;;16.98
79632;BMP280;69108;41.120;16.874;2023-11-21T02:49:14;101096.97;;;17.01
79632;BMP280;69108;41.120;16.874;2023-11-21T02:51:42;101098.50;;;17.02
79632;BMP280;69108;41.120;16.874;2023-11-21T02:54:09;101095.47;;;17.00
79632;BMP280;69108;41.120;16.874;2023-11-21T02:56:36;101084.88;;;17.02
79632;BMP280;69108;41.120;16.874;2023-11-21T02:59:07;101089.56;;;17.02
79632;BMP280;69108;41.120;16.874;2023-11-21T03:01:34;101089.09;;;17.03
79632;BMP280;69108;41.120;16.874;2023-11-21T03:04:01;101087.91;;;17.04
79632;BMP280;69108;41.120;16.874;2023-11-21T03:06:29;101074.72;;;17.03
79632;BMP280;69108;41.120;16.874;2023-11-21T03:08:59;101072.28;;;17.05
79632;BMP280;69108;41.120;16.874;2023-11-21T03:11:26;101072.28;;;17.05
79632;BMP280;69108;41.120;16.874;2023-11-21T03:13:54;101071.81;;;17.06
79632;BMP280;69108;41.120;16.874;2023-11-21T03:16:23;101071.03;;;17.06
79632;BMP280;69108;41.120;16.874;2023-11-21T03:18:52;101067.13;;;17.07
79632;BMP280;69108;41.120;16.874;2023-11-21T03:21:19;101069.06;;;17.06
79632;BMP280;69108;41.120;16.874;2023-11-21T03:23:46;101067.88;;;17.07
79632;BMP280;69108;41.120;16.874;2023-11-21T03:26:14;101069.56;;;17.05
79632;BMP280;69108;41.120;16.874;2023-11-21T03:28:43;101068.78;;;17.04
79632;BMP280;69108;41.120;16.874;2023-11-21T03:31:12;101059.09;;;17.03
79632;BMP280;69108;41.120;16.874;2023-11-21T03:33:44;101063.97;;;16.99
79632;BMP280;69108;41.120;16.874;2023-11-21T03:36:13;101063.63;;;16.97
79632;BMP280;69108;41.120;16.874;2023-11-21T03:38:44;101048.78;;;16.89
79632;BMP280;69108;41.120;16.874;2023-11-21T03:41:12;101053.47;;;16.89
79632;BMP280;69108;41.120;16.874;2023-11-21T03:43:40;101050.31;;;16.90
79632;BMP280;69108;41.120;16.874;2023-11-21T03:46:07;101053.94;;;16.87
79632;BMP280;69108;41.120;16.874;2023-11-21T03:48:35;101046.34;;;16.82
79632;BMP280;69108;41.120;16.874;2023-11-21T03:51:15;101056.50;;;16.82
79632;BMP280;69108;41.120;16.874;2023-11-21T03:53:43;101048.75;;;16.80
79632;BMP280;69108;41.120;16.874;2023-11-21T03:56:10;101053.16;;;16.78
79632;BMP280;69108;41.120;16.874;2023-11-21T03:58:38;101046.97;;;16.77
79632;BMP280;69108;41.120;16.874;2023-11-21T04:01:05;101047.13;;;16.74
79632;BMP280;69108;41.120;16.874;2023-11-21T04:03:33;101053.78;;;16.73
79632;BMP280;69108;41.120;16.874;2023-11-21T04:06:02;101046.78;;;16.72
79632;BMP280;69108;41.120;16.874;2023-11-21T04:08:31;101035.59;;;16.70
79632;BMP280;69108;41.120;16.874;2023-11-21T04:10:59;101036.81;;;16.69
79632;BMP280;69108;41.120;16.874;2023-11-21T04:13:28;101046.19;;;16.68
79632;BMP280;69108;41.120;16.874;2023-11-21T04:15:56;101050.13;;;16.67
79632;BMP280;69108;41.120;16.874;2023-11-21T04:18:23;101040.13;;;16.64
79632;BMP280;69108;41.120;16.874;2023-11-21T04:20:50;101037.84;;;16.62
79632;BMP280;69108;41.120;16.874;2023-11-21T04:23:17;101038.78;;;16.59
79632;BMP280;69108;41.120;16.874;2023-11-21T04:25:47;101044.66;;;16.58
79632;BMP280;69108;41.120;16.874;2023-11-21T04:28:16;101042.84;;;16.55
79632;BMP280;69108;41.120;16.874;2023-11-21T04:30:45;101041.47;;;16.50
79632;BMP280;69108;41.120;16.874;2023-11-21T04:33:15;101052.84;;;16.49
79632;BMP280;69108;41.120;16.874;2023-11-21T04:35:44;101045.56;;;16.46
79632;BMP280;69108;41.120;16.874;2023-11-21T04:38:12;101050.38;;;16.42
79632;BMP280;69108;41.120;16.874;2023-11-21T04:40:39;101049.63;;;16.41
79632;BMP280;69108;41.120;16.874;2023-11-21T04:43:10;101054.31;;;16.41
79632;BMP280;69108;41.120;16.874;2023-11-21T04:45:38;101051.31;;;16.39
79632;BMP280;69108;41.120;16.874;2023-11-21T04:48:06;101037.19;;;16.31
79632;BMP280;69108;41.120;16.874;2023-11-21T04:50:36;101052.53;;;16.38
79632;BMP280;69108;41.120;16.874;2023-11-21T04:53:04;101045.22;;;16.35
79632;BMP280;69108;41.120;16.874;2023-11-21T04:55:34;101036.75;;;16.33
79632;BMP280;69108;41.120;16.874;2023-11-21T04:58:01;101044.50;;;16.34
79632;BMP280;69108;41.120;16.874;2023-11-21T05:00:32;101036.75;;;16.33
79632;BMP280;69108;41.120;16.874;2023-11-21T05:03:01;101033.25;;;16.32
79632;BMP280;69108;41.120;16.874;2023-11-21T05:05:29;101039.16;;;16.31
79632;BMP280;69108;41.120;16.874;2023-11-21T05:07:59;101031.88;;;16.28
79632;BMP280;69108;41.120;16.874;2023-11-21T05:10:26;101039.59;;;16.29
79632;BMP280;69108;41.120;16.874;2023-11-21T05:12:55;101040.06;;;16.28
79632;BMP280;69108;41.120;16.874;2023-11-21T05:15:23;101028.84;;;16.26
79632;BMP280;69108;41.120;16.874;2023-11-21T05:17:52;101033.53;;;16.25
79632;BMP280;69108;41.120;16.874;2023-11-21T05:20:22;101025.50;;;16.22
79632;BMP280;69108;41.120;16.874;2023-11-21T05:22:50;101031.88;;;16.18
79632;BMP280;69108;41.120;16.874;2023-11-21T05:25:18;101035.03;;;16.17
79632;BMP280;69108;41.120;16.874;2023-11-21T05:27:48;101036.25;;;16.16
79632;BMP280;69108;41.120;16.874;2023-11-21T05:30:15;101028.97;;;16.13
79632;BMP280;69108;41.120;16.874;2023-11-21T05:32:42;101034.44;;;16.13
79632;BMP280;69108;41.120;16.874;2023-11-21T05:35:10;101028.97;;;16.13
79632;BMP280;69108;41.120;16.874;2023-11-21T05:37:41;101032.16;;;16.11
79632;BMP280;69108;41.120;16.874;2023-11-21T05:40:08;101040.59;;;16.13
79632;BMP280;69108;41.120;16.874;2023-11-21T05:42:36;101031.69;;;16.13
79632;BMP280;69108;41.120;16.874;2023-11-21T05:45:04;101027.47;;;16.12
79632;BMP280;69108;41.120;16.874;2023-11-21T05:47:36;101034.44;;;16.13
79632;BMP280;69108;41.120;16.874;2023-11-21T05:50:05;101032.44;;;16.13
79632;BMP280;69108;41.120;16.874;2023-11-21T05:52:36;101023.53;;;16.13
79632;BMP280;69108;41.120;16.874;2023-11-21T05:55:04;101019.56;;;16.14
79632;BMP280;69108;41.120;16.874;2023-11-21T05:57:32;101023.81;;;16.15
79632;BMP280;69108;41.120;16.874;2023-11-21T05:59:59;101018.34;;;16.15
79632;BMP280;69108;41.120;16.874;2023-11-21T06:02:28;101022.63;;;16.16
79632;BMP280;69108;41.120;16.874;2023-11-21T06:04:55;101017.16;;;16.16
79632;BMP280;69108;41.120;16.874;2023-11-21T06:07:22;101003.84;;;16.18
79632;BMP280;69108;41.120;16.874;2023-11-21T06:09:51;101002.63;;;16.19
79632;BMP280;69108;41.120;16.874;2023-11-21T06:12:17;101002.19;;;16.21
79632;BMP280;69108;41.120;16.874;2023-11-21T06:14:45;101003.28;;;16.23
79632;BMP280;69108;41.120;16.874;2023-11-21T06:17:14;101007.47;;;16.24
79632;BMP280;69108;41.120;16.874;2023-11-21T06:19:41;101007.81;;;16.26
79632;BMP280;69108;41.120;16.874;2023-11-21T06:22:08;101001.16;;;16.27
79632;BMP280;69108;41.120;16.874;2023-11-21T06:24:35;101005.69;;;16.30
79632;BMP280;69108;41.120;16.874;2023-11-21T06:27:05;101005.25;;;16.32
79632;BMP280;69108;41.120;16.874;2023-11-21T06:29:32;101000.88;;;16.34
79632;BMP280;69108;41.120;16.874;2023-11-21T06:31:58;101001.16;;;16.36
79632;BMP280;69108;41.120;16.874;2023-11-21T06:34:25;101002.25;;;16.39
79632;BMP280;69108;41.120;16.874;2023-11-21T06:36:53;100996.63;;;16.42
79632;BMP280;69108;41.120;16.874;2023-11-21T06:39:20;101005.13;;;16.44
79632;BMP280;69108;41.120;16.874;2023-11-21T06:41:51;100994.53;;;16.46
79632;BMP280;69108;41.120;16.874;2023-11-21T06:44:20;100989.38;;;16.48
79632;BMP280;69108;41.120;16.874;2023-11-21T06:46:47;100992.69;;;16.52
79632;BMP280;69108;41.120;16.874;2023-11-21T06:49:14;100996.19;;;16.53
79632;BMP280;69108;41.120;16.874;2023-11-21T06:51:41;100992.09;;;16.57
79632;BMP280;69108;41.120;16.874;2023-11-21T06:54:08;100984.50;;;16.61
79632;BMP280;69108;41.120;16.874;2023-11-21T06:56:35;100988.63;;;16.66
79632;BMP280;69108;41.120;16.874;2023-11-21T06:59:04;100993.47;;;16.71
79632;BMP280;69108;41.120;16.874;2023-11-21T07:01:34;100990.13;;;16.76
79632;BMP280;69108;41.120;16.874;2023-11-21T07:04:05;100979.84;;;16.80
79632;BMP280;69108;41.120;16.874;2023-11-21T07:06:32;100978.75;;;16.86
79632;BMP280;69108;41.120;16.874;2023-11-21T07:08:59;100980.41;;;16.93
79632;BMP280;69108;41.120;16.874;2023-11-21T07:11:26;100969.94;;;17.00
79632;BMP280;69108;41.120;16.874;2023-11-21T07:13:53;100972.06;;;17.05
79632;BMP280;69108;41.120;16.874;2023-11-21T07:16:20;100971.75;;;17.12
79632;BMP280;69108;41.120;16.874;2023-11-21T07:18:49;100963.25;;;17.19
79632;BMP280;69108;41.120;16.874;2023-11-21T07:21:33;100963.41;;;17.25
79632;BMP280;69108;41.120;16.874;2023-11-21T07:24:49;100955.19;;;17.34
79632;BMP280;69108;41.120;16.874;2023-11-21T07:27:22;100951.81;;;17.39
79632;BMP280;69108;41.120;16.874;2023-11-21T07:29:58;100933.59;;;17.36
79632;BMP280;69108;41.120;16.874;2023-11-21T07:32:36;100952.47;;;17.58
79632;BMP280;69108;41.120;16.874;2023-11-21T07:35:11;100916.16;;;17.43
79632;BMP280;69108;41.120;16.874;2023-11-21T07:37:52;100950.09;;;17.74
79632;BMP280;69108;41.120;16.874;2023-11-21T07:40:28;100913.03;;;17.59
79632;BMP280;69108;41.120;16.874;2023-11-21T07:43:03;100936.72;;;17.85
79632;BMP280;69108;41.120;16.874;2023-11-21T07:45:40;100921.38;;;17.88
79632;BMP280;69108;41.120;16.874;2023-11-21T07:48:12;100919.34;;;17.88
79632;BMP280;69108;41.120;16.874;2023-11-21T07:50:46;100939.75;;;18.11
79632;BMP280;69108;41.120;16.874;2023-11-21T07:53:17;100941.44;;;18.23
79632;BMP280;69108;41.120;16.874;2023-11-21T07:55:56;100927.34;;;18.24
79632;BMP280;69108;41.120;16.874;2023-11-21T07:58:27;100928.00;;;18.34
79632;BMP280;69108;41.120;16.874;2023-11-21T08:00:54;100928.41;;;18.42
79632;BMP280;69108;41.120;16.874;2023-11-21T08:03:21;100929.53;;;18.50
79632;BMP280;69108;41.120;16.874;2023-11-21T08:05:50;100928.88;;;18.55
79632;BMP280;69108;41.120;16.874;2023-11-21T08:08:16;100925.47;;;18.60
79632;BMP280;69108;41.120;16.874;2023-11-21T08:10:43;100913.91;;;18.65
79632;BMP280;69108;41.120;16.874;2023-11-21T08:13:21;100916.75;;;18.70
79632;BMP280;69108;41.120;16.874;2023-11-21T08:15:48;100915.31;;;18.75
79632;BMP280;69108;41.120;16.874;2023-11-21T08:18:16;100910.09;;;18.77
79632;BMP280;69108;41.120;16.874;2023-11-21T08:20:43;100914.94;;;18.82
79632;BMP280;69108;41.120;16.874;2023-11-21T08:23:15;100915.47;;;18.86
79632;BMP280;69108;41.120;16.874;2023-11-21T08:25:43;100909.56;;;18.87
79632;BMP280;69108;41.120;16.874;2023-11-21T08:28:10;100916.44;;;18.97
79632;BMP280;69108;41.120;16.874;2023-11-21T08:30:37;100915.03;;;19.02
79632;BMP280;69108;41.120;16.874;2023-11-21T08:33:03;100918.31;;;19.06
79632;BMP280;69108;41.120;16.874;2023-11-21T08:35:31;100914.16;;;19.10
79632;BMP280;69108;41.120;16.874;2023-11-21T08:37:58;100914.72;;;19.14
79632;BMP280;69108;41.120;16.874;2023-11-21T08:40:26;100906.59;;;19.20
79632;BMP280;69108;41.120;16.874;2023-11-21T08:42:53;100907.41;;;19.26
79632;BMP280;69108;41.120;16.874;2023-11-21T08:45:20;100892.03;;;19.28
79632;BMP280;69108;41.120;16.874;2023-11-21T08:47:48;100896.88;;;19.39
79632;BMP280;69108;41.120;16.874;2023-11-21T08:50:14;100888.28;;;19.46
79632;BMP280;69108;41.120;16.874;2023-11-21T08:52:42;100892.59;;;19.53
79632;BMP280;69108;41.120;16.874;2023-11-21T08:55:09;100888.69;;;19.59
79632;BMP280;69108;41.120;16.874;2023-11-21T08:57:39;100883.25;;;19.65
79632;BMP280;69108;41.120;16.874;2023-11-21T09:00:07;100878.63;;;19.71
79632;BMP280;69108;41.120;16.874;2023-11-21T09:02:37;100878.22;;;19.78
79632;BMP280;69108;41.120;16.874;2023-11-21T09:05:04;100881.78;;;19.84
79632;BMP280;69108;41.120;16.874;2023-11-21T09:07:32;100880.13;;;19.92
79632;BMP280;69108;41.120;16.874;2023-11-21T09:09:59;100873.75;;;20.00
79632;BMP280;69108;41.120;16.874;2023-11-21T09:12:26;100871.06;;;20.06
79632;BMP280;69108;41.120;16.874;2023-11-21T09:14:54;100879.66;;;20.19
79632;BMP280;69108;41.120;16.874;2023-11-21T09:17:21;100870.34;;;20.36
79632;BMP280;69108;41.120;16.874;2023-11-21T09:19:48;100871.47;;;20.50
79632;BMP280;69108;41.120;16.874;2023-11-21T09:22:17;100867.56;;;20.62
79632;BMP280;69108;41.120;16.874;2023-11-21T09:24:44;100859.72;;;20.75
79632;BMP280;69108;41.120;16.874;2023-11-21T09:27:11;100860.50;;;20.81
79632;BMP280;69108;41.120;16.874;2023-11-21T09:29:38;100849.78;;;20.83
79632;BMP280;69108;41.120;16.874;2023-11-21T09:32:06;100850.59;;;20.89
79632;BMP280;69108;41.120;16.874;2023-11-21T09:34:34;100849.09;;;20.94
79632;BMP280;69108;41.120;16.874;2023-11-21T09:37:03;100839.34;;;20.93
79632;BMP280;69108;41.120;16.874;2023-11-21T09:39:32;100837.34;;;20.93
79632;BMP280;69108;41.120;16.874;2023-11-21T09:42:10;100826.91;;;20.97
79632;BMP280;69108;41.120;16.874;2023-11-21T09:44:45;100820.13;;;20.98
79632;BMP280;69108;41.120;16.874;2023-11-21T09:47:15;100818.69;;;21.03
79632;BMP280;69108;41.120;16.874;2023-11-21T09:49:47;100821.94;;;21.07
79632;BMP280;69108;41.120;16.874;2023-11-21T09:52:22;100814.97;;;21.06
79632;BMP280;69108;41.120;16.874;2023-11-21T09:54:51;100800.94;;;21.04
79632;BMP280;69108;41.120;16.874;2023-11-21T09:57:19;100803.19;;;21.00
79632;BMP280;69108;41.120;16.874;2023-11-21T09:59:51;100793.19;;;20.97
79632;BMP280;69108;41.120;16.874;2023-11-21T10:02:22;100793.44;;;20.93
79632;BMP280;69108;41.120;16.874;2023-11-21T10:04:51;100788.66;;;20.88
79632;BMP280;69108;41.120;16.874;2023-11-21T10:07:20;100786.91;;;20.85
79632;BMP280;69108;41.120;16.874;2023-11-21T10:09:47;100790.38;;;20.80
79632;BMP280;69108;41.120;16.874;2023-11-21T10:12:15;100781.91;;;20.84
79632;BMP280;69108;41.120;16.874;2023-11-21T10:14:42;100775.91;;;20.85
79632;BMP280;69108;41.120;16.874;2023-11-21T10:17:10;100772.19;;;20.88
79632;BMP280;69108;41.120;16.874;2023-11-21T10:19:40;100765.97;;;20.93
79632;BMP280;69108;41.120;16.874;2023-11-21T10:22:08;100764.97;;;20.96
79632;BMP280;69108;41.120;16.874;2023-11-21T10:24:35;100766.75;;;20.99
79632;BMP280;69108;41.120;16.874;2023-11-21T10:27:03;100762.28;;;21.02
79632;BMP280;69108;41.120;16.874;2023-11-21T10:29:30;100756.53;;;21.05
79632;BMP280;69108;41.120;16.874;2023-11-21T10:32:02;100752.03;;;21.08
79632;BMP280;69108;41.120;16.874;2023-11-21T10:34:29;100755.06;;;21.10
79632;BMP280;69108;41.120;16.874;2023-11-21T10:36:57;100744.34;;;21.12
79632;BMP280;69108;41.120;16.874;2023-11-21T10:39:25;100739.56;;;21.12
79632;BMP280;69108;41.120;16.874;2023-11-21T10:41:56;100748.34;;;21.16
79632;BMP280;69108;41.120;16.874;2023-11-21T10:44:23;100740.34;;;21.18
79632;BMP280;69108;41.120;16.874;2023-11-21T10:46:51;100731.13;;;21.21
79632;BMP280;69108;41.120;16.874;2023-11-21T10:49:22;100742.63;;;21.25
79632;BMP280;69108;41.120;16.874;2023-11-21T10:51:50;100733.88;;;21.27
79632;BMP280;69108;41.120;16.874;2023-11-21T10:54:20;100738.16;;;21.33
79632;BMP280;69108;41.120;16.874;2023-11-21T10:56:49;100734.66;;;21.38
79632;BMP280;69108;41.120;16.874;2023-11-21T10:59:17;100741.69;;;21.45
79632;BMP280;69108;41.120;16.874;2023-11-21T11:01:50;100730.16;;;21.46
79632;BMP280;69108;41.120;16.874;2023-11-21T11:04:18;100727.19;;;21.50
79632;BMP280;69108;41.120;16.874;2023-11-21T11:06:51;100728.94;;;21.53
79632;BMP280;69108;41.120;16.874;2023-11-21T11:09:23;100734.97;;;21.57
79632;BMP280;69108;41.120;16.874;2023-11-21T11:11:51;100735.97;;;21.59
79632;BMP280;69108;41.120;16.874;2023-11-21T11:14:18;100732.72;;;21.61
79632;BMP280;69108;41.120;16.874;2023-11-21T11:16:53;100722.22;;;21.59
79632;BMP280;69108;41.120;16.874;2023-11-21T11:19:20;100719.72;;;21.56
79632;BMP280;69108;41.120;16.874;2023-11-21T11:21:51;100717.69;;;21.51
79632;BMP280;69108;41.120;16.874;2023-11-21T11:24:44;100713.69;;;21.46
79632;BMP280;69108;41.120;16.874;2023-11-21T11:27:23;100708.69;;;21.39
79632;BMP280;69108;41.120;16.874;2023-11-21T11:30:02;100725.66;;;21.32
79632;BMP280;69108;41.120;16.874;2023-11-21T11:32:40;100719.16;;;21.24
79632;BMP280;69108;41.120;16.874;2023-11-21T11:35:14;100715.13;;;21.14
79632;BMP280;69108;41.120;16.874;2023-11-21T11:37:44;100699.88;;;21.08
79632;BMP280;69108;41.120;16.874;2023-11-21T11:40:12;100704.59;;;21.07
79632;BMP280;69108;41.120;16.874;2023-11-21T11:42:55;100703.34;;;21.03
79632;BMP280;69108;41.120;16.874;2023-11-21T11:45:26;100702.59;;;21.02
79632;BMP280;69108;41.120;16.874;2023-11-21T11:48:00;100705.84;;;21.06
79632;BMP280;69108;41.120;16.874;2023-11-21T11:50:27;100699.09;;;21.07
79632;BMP280;69108;41.120;16.874;2023-11-21T11:52:55;100698.63;;;21.03
79632;BMP280;69108;41.120;16.874;2023-11-21T11:55:39;100691.59;;;21.02
79632;BMP280;69108;41.120;16.874;2023-11-21T11:58:06;100701.63;;;21.05
79632;BMP280;69108;41.120;16.874;2023-11-21T12:00:34;100691.41;;;21.06
79632;BMP280;69108;41.120;16.874;2023-11-21T12:03:04;100691.09;;;21.04
79632;BMP280;69108;41.120;16.874;2023-11-21T12:05:32;100690.88;;;21.02
79632;BMP280;69108;41.120;16.874;2023-11-21T12:08:02;100685.34;;;20.96
79632;BMP280;69108;41.120;16.874;2023-11-21T12:10:30;100686.34;;;20.93
79632;BMP280;69108;41.120;16.874;2023-11-21T12:13:00;100685.31;;;20.91
79632;BMP280;69108;41.120;16.874;2023-11-21T12:15:27;100688.59;;;20.89
79632;BMP280;69108;41.120;16.874;2023-11-21T12:17:56;100682.34;;;20.89
79632;BMP280;69108;41.120;16.874;2023-11-21T12:20:25;100682.06;;;20.87
79632;BMP280;69108;41.120;16.874;2023-11-21T12:22:53;100682.03;;;20.81
79632;BMP280;69108;41.120;16.874;2023-11-21T12:25:23;100673.78;;;20.76
79632;BMP280;69108;41.120;16.874;2023-11-21T12:27:51;100665.03;;;20.72
79632;BMP280;69108;41.120;16.874;2023-11-21T12:30:20;100650.78;;;20.67
79632;BMP280;69108;41.120;16.874;2023-11-21T12:32:49;100666.28;;;20.65
79632;BMP280;69108;41.120;16.874;2023-11-21T12:35:17;100667.50;;;20.64
79632;BMP280;69108;41.120;16.874;2023-11-21T12:37:46;100673.72;;;20.59
79632;BMP280;69108;41.120;16.874;2023-11-21T12:40:14;100663.97;;;20.52
79632;BMP280;69108;41.120;16.874;2023-11-21T12:42:44;100658.72;;;20.54
79632;BMP280;69108;41.120;16.874;2023-11-21T12:45:20;100657.53;;;20.66
79632;BMP280;69108;41.120;16.874;2023-11-21T12:47:48;100649.84;;;20.76
79632;BMP280;69108;41.120;16.874;2023-11-21T12:50:18;100647.38;;;20.84
79632;BMP280;69108;41.120;16.874;2023-11-21T12:52:50;100650.38;;;20.91
79632;BMP280;69108;41.120;16.874;2023-11-21T12:55:19;100645.38;;;20.95
79632;BMP280;69108;41.120;16.874;2023-11-21T12:57:48;100646.66;;;21.00
79632;BMP280;69108;41.120;16.874;2023-11-21T13:00:19;100639.41;;;21.02
79632;BMP280;69108;41.120;16.874;2023-11-21T13:02:54;100635.94;;;21.07
79632;BMP280;69108;41.120;16.874;2023-11-21T13:05:30;100625.25;;;21.09
79632;BMP280;69108;41.120;16.874;2023-11-21T13:07:59;100624.50;;;21.09
79632;BMP280;69108;41.120;16.874;2023-11-21T13:10:29;100630.72;;;21.09
79632;BMP280;69108;41.120;16.874;2023-11-21T13:12:57;100634.94;;;21.10
79632;BMP280;69108;41.120;16.874;2023-11-21T13:15:27;100630.22;;;21.11
79632;BMP280;69108;41.120;16.874;2023-11-21T13:17:56;100635.19;;;21.12
79632;BMP280;69108;41.120;16.874;2023-11-21T13:20:24;100636.72;;;21.13
79632;BMP280;69108;41.120;16.874;2023-11-21T13:22:51;100631.22;;;21.13
79632;BMP280;69108;41.120;16.874;2023-11-21T13:25:20;100625.97;;;21.15
79632;BMP280;69108;41.120;16.874;2023-11-21T13:27:47;100623.22;;;21.15
79632;BMP280;69108;41.120;16.874;2023-11-21T13:30:15;100626.25;;;21.17
79632;BMP280;69108;41.120;16.874;2023-11-21T13:32:44;100610.75;;;21.14
79632;BMP280;69108;41.120;16.874;2023-11-21T13:35:12;100614.25;;;21.15
79632;BMP280;69108;41.120;16.874;2023-11-21T13:37:49;100613.22;;;21.12
79632;BMP280;69108;41.120;16.874;2023-11-21T13:40:22;100612.50;;;21.12
79632;BMP280;69108;41.120;16.874;2023-11-21T13:42:52;100607.00;;;21.12
79632;BMP280;69108;41.120;16.874;2023-11-21T13:45:21;100615.25;;;21.12
79632;BMP280;69108;41.120;16.874;2023-11-21T13:47:52;100619.97;;;21.11
79632;BMP280;69108;41.120;16.874;2023-11-21T13:50:22;100615.00;;;21.10
79632;BMP280;69108;41.120;16.874;2023-11-21T13:52:51;100612.47;;;21.06
79632;BMP280;69108;41.120;16.874;2023-11-21T13:55:21;100607.50;;;21.05